Home   Weather   Germany   Bonn   Past weeks
Flag for Germany

Past Weather in Bonn, North Rhine-Westphalia, Germany — Yesterday and Last 2 Weeks

Currently: 63 °F. Clear. (Weather station: Koeln / Bonn, Germany). See more current weather

Past Weather in Bonn — Graph

°F

Bonn Temperature Yesterday

Maximum temperature yesterday: 77 °F (at 2:20 pm)
Minimum temperature yesterday: 63 °F (at 12:50 am)
Average temperature yesterday: 67 °F

High & Low Weather Summary for the Past Weeks

 TemperatureHumidityPressure
High90 °F (Jul 20, 2:50 pm)100% (Jul 10, 1:20 am)30.21 "Hg (Jul 10, 1:20 am)
Low52 °F (Jul 14, 1:20 am)39% (Jul 15, 3:50 pm)29.71 "Hg (Jul 12, 12:20 pm)
Average68 °F75%29.98 "Hg
* Reported Jul 9 9:20 pm — Jul 24 9:20 pm, Bonn. Weather by CustomWeather, © 2024

Note: Actual official high and low records may vary slightly from our data, if they occured in-between our weather recording intervals... More about our weather records

Bonn Weather History for the Previous 24 Hours

Scroll right to see more
 ConditionsComfort  
Time TempWeatherWind HumidityBarometerVisibility
9:20 pm
Wed, Jul 24
64 °FSunny.3 mph73%30.09 "Hg10 mi
8:50 pm68 °FSunny.3 mph64%30.09 "Hg10 mi
8:20 pm70 °FPassing clouds.6 mph57%30.09 "HgN/A
7:50 pm70 °FSunny.5 mph60%30.09 "Hg10 mi
7:20 pm72 °FSunny.8 mph53%30.09 "Hg10 mi
6:50 pm70 °FSunny.6 mph60%30.09 "Hg10 mi
6:20 pm72 °FPassing clouds.8 mph57%30.09 "HgN/A
5:50 pm72 °FPassing clouds.9 mph53%30.09 "HgN/A
5:20 pm72 °FPassing clouds.6 mph57%30.09 "HgN/A
4:50 pm73 °FPassing clouds.7 mph50%30.12 "HgN/A
4:20 pm73 °FPassing clouds.9 mph53%30.12 "HgN/A
3:50 pm70 °FScattered clouds.9 mph64%30.12 "HgN/A
3:20 pm72 °FPassing clouds.8 mph61%30.12 "HgN/A
2:50 pm70 °FPassing clouds.9 mph64%30.12 "HgN/A
2:20 pm72 °FPassing clouds.7 mph61%30.12 "HgN/A
1:50 pm70 °FScattered clouds.7 mph64%30.15 "HgN/A
1:20 pm68 °FScattered clouds.3 mph69%30.15 "HgN/A
12:50 pm66 °FBroken clouds.6 mph73%30.15 "HgN/A
12:20 pm66 °FBroken clouds.9 mph73%30.15 "HgN/A
11:50 am66 °FBroken clouds.9 mph78%30.15 "HgN/A
11:20 am66 °FPartly sunny.9 mph73%30.15 "HgN/A
10:20 am64 °FBroken clouds.8 mph78%30.15 "HgN/A
9:50 am66 °FScattered clouds.7 mph73%30.15 "HgN/A
9:20 am64 °FPartly sunny.8 mph78%30.15 "HgN/A
8:50 am64 °FBroken clouds.8 mph78%30.15 "HgN/A
8:20 am64 °FPartly sunny.8 mph78%30.15 "HgN/A
7:50 am61 °FMostly cloudy.7 mph88%30.15 "HgN/A
7:20 am61 °FMostly cloudy.7 mph88%30.15 "HgN/A
6:50 am61 °FMostly cloudy.7 mph88%30.15 "HgN/A
6:20 am61 °FMore clouds than sun.5 mph88%30.12 "HgN/A
5:50 am61 °FMore clouds than sun.9 mph83%30.12 "HgN/A
5:20 am61 °FMostly cloudy.8 mph83%30.12 "HgN/A
4:50 am61 °FMostly cloudy.7 mph83%30.12 "HgN/A
4:20 am61 °FMostly cloudy.7 mph83%30.12 "HgN/A
3:50 am61 °FMostly cloudy.8 mph83%30.12 "HgN/A
3:20 am61 °FMostly cloudy.10 mph88%30.12 "HgN/A
2:50 am61 °FPassing clouds.13 mph83%30.12 "HgN/A
2:20 am61 °FPartly cloudy.10 mph88%30.12 "HgN/A
1:50 am61 °FPassing clouds.12 mph83%30.12 "HgN/A
1:20 am63 °FPassing clouds.14 mph77%30.12 "HgN/A
12:50 am64 °FPassing clouds.15 mph73%30.12 "HgN/A
12:20 am64 °FPassing clouds.10 mph88%30.09 "HgN/A
11:50 pm
Tue, Jul 23
64 °FPassing clouds.10 mph88%30.09 "HgN/A
11:20 pm64 °FMostly cloudy.10 mph88%30.09 "HgN/A
10:50 pm66 °FPassing clouds.12 mph78%30.09 "HgN/A
10:20 pm66 °FPassing clouds.12 mph78%30.09 "HgN/A
Weather by CustomWeather, © 2024

See weather overview